Time;durP1;ratioP1;P1;durP2;ratioP2;P2;SDS_P1;SDS_P2;PMS_P1;PMS_P2;Temp;Humidity;BMP_temperature;BMP_pressure;BME280_temperature;BME280_humidity;BME280_pressure;Samples;Min_cycle;Max_cycle;Signal;HPM_P1;HPM_P2
2021/04/13 00:01:10;;;;;;;4.90;3.00;;;;;;;;;;5126487;27;20106;-51
2021/04/13 00:03:36;;;;;;;3.63;2.53;;;;;;;;;;5131595;27;20025;-51
2021/04/13 00:06:02;;;;;;;4.07;2.67;;;;;;;;;;5120176;27;20019;-50
2021/04/13 00:08:28;;;;;;;4.13;2.37;;;;;;;;;;5132515;27;20016;-49
2021/04/13 00:10:56;;;;;;;4.30;2.63;;;;;;;;;;5116237;27;20019;-48
2021/04/13 00:13:22;;;;;;;5.60;2.80;;;;;;;;;;5125752;27;20025;-49
2021/04/13 00:15:52;;;;;;;5.80;4.00;;;;;;;;;;5117077;27;20024;-48
2021/04/13 00:18:19;;;;;;;6.13;3.40;;;;;;;;;;5125670;27;20015;-50
2021/04/13 00:20:46;;;;;;;5.27;3.60;;;;;;;;;;5128516;27;20023;-50
2021/04/13 00:23:12;;;;;;;4.33;3.07;;;;;;;;;;5133793;27;20079;-53
2021/04/13 00:25:43;;;;;;;6.07;3.23;;;;;;;;;;5125279;27;20110;-48
2021/04/13 00:28:09;;;;;;;6.40;3.50;;;;;;;;;;5122412;27;20023;-47
2021/04/13 00:30:46;;;;;;;3.73;2.97;;;;;;;;;;5116056;28;20019;-47
2021/04/13 00:33:15;;;;;;;5.63;3.40;;;;;;;;;;5121779;27;20072;-47
2021/04/13 00:35:45;;;;;;;4.97;3.07;;;;;;;;;;5123972;27;20062;-47
2021/04/13 00:38:13;;;;;;;5.27;3.40;;;;;;;;;;5118426;27;20026;-50
2021/04/13 00:40:39;;;;;;;4.97;3.10;;;;;;;;;;5115686;28;20019;-50
2021/04/13 00:43:05;;;;;;;5.97;3.90;;;;;;;;;;5124359;27;20030;-47
2021/04/13 00:45:32;;;;;;;4.20;3.20;;;;;;;;;;5134958;27;20062;-51
2021/04/13 00:47:59;;;;;;;4.03;3.57;;;;;;;;;;5122321;27;20016;-50
2021/04/13 00:50:35;;;;;;;4.70;3.60;;;;;;;;;;5129482;27;20375;-46
2021/04/13 00:53:02;;;;;;;5.37;3.70;;;;;;;;;;5133668;27;20054;-52
2021/04/13 00:55:30;;;;;;;5.43;4.17;;;;;;;;;;5133148;27;20149;-49
2021/04/13 00:58:01;;;;;;;7.17;3.50;;;;;;;;;;5131624;27;20020;-50
2021/04/13 01:00:30;;;;;;;6.77;3.80;;;;;;;;;;5133914;27;20019;-52
2021/04/13 01:03:02;;;;;;;5.80;4.17;;;;;;;;;;5126271;27;20356;-49
2021/04/13 01:05:39;;;;;;;4.77;4.27;;;;;;;;;;5119699;27;20023;-49
2021/04/13 01:08:19;;;;;;;4.90;3.37;;;;;;;;;;5131827;27;20459;-49
2021/04/13 01:10:44;;;;;;;5.83;3.70;;;;;;;;;;5129250;27;20027;-50
2021/04/13 01:13:17;;;;;;;8.63;4.23;;;;;;;;;;5130971;27;20028;-46
2021/04/13 01:15:48;;;;;;;5.13;3.77;;;;;;;;;;5124155;27;20027;-50
2021/04/13 01:18:17;;;;;;;6.50;3.87;;;;;;;;;;5125486;27;20020;-46
2021/04/13 01:20:59;;;;;;;8.77;4.27;;;;;;;;;;5114971;27;20387;-47
2021/04/13 01:23:36;;;;;;;8.10;4.53;;;;;;;;;;5125616;27;20020;-51
2021/04/13 01:26:03;;;;;;;5.73;4.07;;;;;;;;;;5125607;27;20019;-47
2021/04/13 01:28:29;;;;;;;6.57;4.80;;;;;;;;;;5130346;27;20030;-46
2021/04/13 01:30:58;;;;;;;5.70;3.87;;;;;;;;;;5132734;27;20014;-52
2021/04/13 01:33:23;;;;;;;6.10;3.93;;;;;;;;;;5125616;27;20105;-50
2021/04/13 01:35:52;;;;;;;7.37;4.37;;;;;;;;;;5124740;27;20457;-48
2021/04/13 01:38:31;;;;;;;6.23;4.70;;;;;;;;;;5119955;27;20382;-47
2021/04/13 01:41:29;;;;;;;7.33;4.83;;;;;;;;;;5123940;27;20390;-52
2021/04/13 01:43:48;;;;;;;7.87;4.70;;;;;;;;;;5116303;27;20455;-50
2021/04/13 01:46:13;;;;;;;8.20;4.37;;;;;;;;;;5115073;27;20024;-49
2021/04/13 01:48:40;;;;;;;7.27;4.43;;;;;;;;;;5118334;27;20022;-50
2021/04/13 01:51:07;;;;;;;8.83;4.77;;;;;;;;;;5126345;27;20458;-51
2021/04/13 01:53:37;;;;;;;6.60;4.60;;;;;;;;;;5130695;27;20094;-53
2021/04/13 01:56:05;;;;;;;5.47;3.90;;;;;;;;;;5133870;27;20023;-50
2021/04/13 01:58:39;;;;;;;7.83;4.03;;;;;;;;;;5126607;27;20027;-52
2021/04/13 02:01:11;;;;;;;6.70;4.03;;;;;;;;;;5130972;27;20030;-49
2021/04/13 02:03:39;;;;;;;5.40;4.10;;;;;;;;;;5133592;27;20015;-48
2021/04/13 02:06:09;;;;;;;5.90;4.00;;;;;;;;;;5115283;27;20046;-53
2021/04/13 02:08:58;;;;;;;4.93;3.70;;;;;;;;;;5127834;27;20024;-48
2021/04/13 02:11:25;;;;;;;8.00;4.43;;;;;;;;;;5126350;27;20098;-52
2021/04/13 02:13:53;;;;;;;7.33;5.00;;;;;;;;;;5134595;27;20437;-48
2021/04/13 02:16:21;;;;;;;7.07;4.90;;;;;;;;;;5129080;27;20027;-49
2021/04/13 02:18:47;;;;;;;7.57;4.70;;;;;;;;;;5125440;27;20019;-52
2021/04/13 02:21:18;;;;;;;7.87;5.20;;;;;;;;;;5129770;27;20641;-51
2021/04/13 02:23:48;;;;;;;7.10;5.20;;;;;;;;;;5128261;27;20462;-49
2021/04/13 02:26:13;;;;;;;5.73;4.73;;;;;;;;;;5117157;27;20034;-53
2021/04/13 02:28:40;;;;;;;7.43;5.27;;;;;;;;;;5124412;27;20019;-51
2021/04/13 02:31:06;;;;;;;8.57;4.80;;;;;;;;;;5111654;27;20019;-51
2021/04/13 02:33:34;;;;;;;6.50;4.90;;;;;;;;;;5118175;27;20024;-49
2021/04/13 02:36:06;;;;;;;7.57;4.80;;;;;;;;;;5115456;27;20560;-45
2021/04/13 02:38:32;;;;;;;7.07;5.13;;;;;;;;;;5127847;27;20016;-50
2021/04/13 02:41:07;;;;;;;6.07;5.43;;;;;;;;;;5129032;27;20022;-50
2021/04/13 02:43:32;;;;;;;;;;;;;;;;;;5127599;27;20493;-49
2021/04/13 02:46:00;;;;;;;9.50;4.60;;;;;;;;;;5131280;27;19911;-51
2021/04/13 02:48:28;;;;;;;9.33;5.17;;;;;;;;;;5128356;27;20018;-51
2021/04/13 02:50:55;;;;;;;9.90;5.30;;;;;;;;;;5118108;27;20367;-48
2021/04/13 02:53:24;;;;;;;6.93;5.93;;;;;;;;;;5111606;28;20016;-53
2021/04/13 02:55:51;;;;;;;7.93;5.43;;;;;;;;;;5128402;27;20200;-47
2021/04/13 02:58:17;;;;;;;9.03;6.03;;;;;;;;;;5125157;27;20027;-48
2021/04/13 03:00:43;;;;;;;7.17;5.33;;;;;;;;;;5118565;27;20026;-51
2021/04/13 03:03:13;;;;;;;7.10;5.53;;;;;;;;;;5129497;27;20026;-51
2021/04/13 03:05:39;;;;;;;6.10;5.30;;;;;;;;;;5125060;27;20110;-51
2021/04/13 03:08:07;;;;;;;6.87;5.53;;;;;;;;;;5119124;27;20037;-51
2021/04/13 03:10:35;;;;;;;6.47;5.17;;;;;;;;;;5124101;27;20019;-48
2021/04/13 03:13:05;;;;;;;7.17;5.37;;;;;;;;;;5127252;27;20056;-47
2021/04/13 03:15:31;;;;;;;7.17;5.73;;;;;;;;;;5133681;27;20023;-48
2021/04/13 03:18:00;;;;;;;6.60;5.60;;;;;;;;;;5131822;27;20022;-50
2021/04/13 03:20:27;;;;;;;8.87;5.97;;;;;;;;;;5123327;27;20110;-50
2021/04/13 03:22:53;;;;;;;8.70;6.03;;;;;;;;;;5127974;27;20023;-45
2021/04/13 03:25:21;;;;;;;7.70;6.13;;;;;;;;;;5133515;27;20026;-46
2021/04/13 03:27:47;;;;;;;10.83;6.17;;;;;;;;;;5119435;27;20011;-50
2021/04/13 03:30:12;;;;;;;6.97;5.53;;;;;;;;;;5114488;27;20026;-48
2021/04/13 03:32:42;;;;;;;7.23;5.97;;;;;;;;;;5125417;27;20078;-52
2021/04/13 03:35:08;;;;;;;8.37;6.30;;;;;;;;;;5131250;27;20027;-50
2021/04/13 03:37:34;;;;;;;9.80;6.43;;;;;;;;;;5133435;27;20038;-50
2021/04/13 03:40:08;;;;;;;8.50;6.17;;;;;;;;;;5116749;27;20020;-51
2021/04/13 03:42:35;;;;;;;7.83;5.97;;;;;;;;;;5124640;27;20028;-52
2021/04/13 03:45:01;;;;;;;9.60;5.87;;;;;;;;;;5123723;28;20054;-49
2021/04/13 03:47:28;;;;;;;7.40;6.10;;;;;;;;;;5133403;27;20421;-51
2021/04/13 03:49:54;;;;;;;7.73;5.43;;;;;;;;;;5118835;27;20076;-49
2021/04/13 03:52:26;;;;;;;9.13;5.97;;;;;;;;;;5119384;28;20035;-48
2021/04/13 03:54:52;;;;;;;6.67;5.83;;;;;;;;;;5131623;27;20047;-48
2021/04/13 03:57:34;;;;;;;7.43;6.00;;;;;;;;;;5132973;27;20054;-52
2021/04/13 03:59:59;;;;;;;8.93;6.27;;;;;;;;;;5121777;27;20106;-49
2021/04/13 04:02:25;;;;;;;7.47;5.73;;;;;;;;;;5122445;27;20102;-49
2021/04/13 04:05:02;;;;;;;8.97;6.47;;;;;;;;;;5118115;28;20019;-50
2021/04/13 04:07:38;;;;;;;5.63;5.03;;;;;;;;;;5132359;27;20054;-48
2021/04/13 04:10:22;;;;;;;8.07;6.63;;;;;;;;;;5112982;27;20027;-50
2021/04/13 04:12:55;;;;;;;6.60;5.67;;;;;;;;;;5126007;28;20020;-50
2021/04/13 04:15:26;;;;;;;7.07;5.73;;;;;;;;;;5133051;27;20024;-51
2021/04/13 04:17:51;;;;;;;7.90;6.37;;;;;;;;;;5132645;27;20441;-50
2021/04/13 04:20:16;;;;;;;9.27;6.80;;;;;;;;;;5130824;28;20055;-48
2021/04/13 04:22:52;;;;;;;9.27;7.03;;;;;;;;;;5125640;28;20019;-54
2021/04/13 04:25:30;;;;;;;7.30;6.47;;;;;;;;;;5112139;28;20024;-50
2021/04/13 04:27:56;;;;;;;8.33;7.33;;;;;;;;;;5127425;28;20018;-51
2021/04/13 04:30:24;;;;;;;8.10;7.10;;;;;;;;;;5129777;28;20106;-51
2021/04/13 04:32:49;;;;;;;8.47;6.53;;;;;;;;;;5116244;28;20011;-50
2021/04/13 04:35:30;;;;;;;9.93;7.87;;;;;;;;;;5123252;27;20359;-48
2021/04/13 04:38:00;;;;;;;10.73;7.07;;;;;;;;;;5132336;28;20019;-51
2021/04/13 04:40:25;;;;;;;12.30;7.63;;;;;;;;;;5120745;28;20061;-51
2021/04/13 04:42:53;;;;;;;9.70;8.20;;;;;;;;;;5118734;28;20446;-47
2021/04/13 04:45:34;;;;;;;8.47;7.30;;;;;;;;;;5119675;27;20023;-49
2021/04/13 04:48:00;;;;;;;11.03;8.40;;;;;;;;;;5133854;27;20031;-48
2021/04/13 04:50:26;;;;;;;10.47;7.80;;;;;;;;;;5119138;27;20053;-47
2021/04/13 04:52:51;;;;;;;11.00;8.23;;;;;;;;;;5110705;27;20498;-49
2021/04/13 04:55:16;;;;;;;12.67;9.17;;;;;;;;;;5131212;27;20084;-51
2021/04/13 04:57:42;;;;;;;11.77;9.20;;;;;;;;;;5132058;27;20015;-51
2021/04/13 05:00:08;;;;;;;11.07;9.33;;;;;;;;;;5134586;27;20128;-53
2021/04/13 05:02:34;;;;;;;11.83;9.37;;;;;;;;;;5127719;27;20461;-47
2021/04/13 05:04:59;;;;;;;12.00;9.10;;;;;;;;;;5122544;27;20108;-52
2021/04/13 05:07:25;;;;;;;13.00;9.43;;;;;;;;;;5123874;27;20043;-50
2021/04/13 05:09:50;;;;;;;12.90;10.00;;;;;;;;;;5131971;27;20386;-47
2021/04/13 05:12:15;;;;;;;12.43;9.67;;;;;;;;;;5119882;27;20023;-52
2021/04/13 05:14:40;;;;;;;13.33;9.77;;;;;;;;;;5135846;27;20374;-53
2021/04/13 05:17:06;;;;;;;12.20;9.77;;;;;;;;;;5121746;27;20501;-50
2021/04/13 05:19:31;;;;;;;12.90;11.47;;;;;;;;;;5120871;27;20076;-54
2021/04/13 05:21:56;;;;;;;12.93;9.77;;;;;;;;;;5119967;27;20015;-49
2021/04/13 05:24:21;;;;;;;12.70;10.30;;;;;;;;;;5129357;27;20033;-48
2021/04/13 05:26:46;;;;;;;11.67;9.27;;;;;;;;;;5129815;27;20022;-53
2021/04/13 05:29:12;;;;;;;12.73;9.63;;;;;;;;;;5120925;27;20474;-52
2021/04/13 05:31:40;;;;;;;14.40;11.87;;;;;;;;;;5129035;27;20374;-52
2021/04/13 05:34:05;;;;;;;13.37;10.57;;;;;;;;;;5114778;28;20024;-51
2021/04/13 05:36:31;;;;;;;13.70;10.87;;;;;;;;;;5122545;27;20027;-47
2021/04/13 05:38:58;;;;;;;14.87;10.97;;;;;;;;;;5129040;27;20076;-47
2021/04/13 05:41:23;;;;;;;12.13;9.53;;;;;;;;;;5116979;27;20031;-51
2021/04/13 05:43:48;;;;;;;12.70;10.87;;;;;;;;;;5117264;27;20019;-46
2021/04/13 05:46:16;;;;;;;12.03;9.80;;;;;;;;;;5133105;27;20023;-49
2021/04/13 05:48:41;;;;;;;13.93;11.07;;;;;;;;;;5121098;27;20355;-48
2021/04/13 05:51:06;;;;;;;11.97;7.37;;;;;;;;;;5131131;27;20122;-52
2021/04/13 05:53:32;;;;;;;11.47;8.93;;;;;;;;;;5120452;27;20020;-45
2021/04/13 05:55:57;;;;;;;13.63;9.63;;;;;;;;;;5117345;27;20475;-46
2021/04/13 05:58:33;;;;;;;13.93;10.17;;;;;;;;;;5123348;27;20059;-48
2021/04/13 06:01:00;;;;;;;10.97;9.03;;;;;;;;;;5114622;27;20024;-50
2021/04/13 06:03:26;;;;;;;10.47;9.10;;;;;;;;;;5131617;27;20031;-47
2021/04/13 06:05:54;;;;;;;11.17;8.83;;;;;;;;;;5119443;27;20382;-52
2021/04/13 06:08:19;;;;;;;10.53;9.13;;;;;;;;;;5129923;27;20028;-51
2021/04/13 06:10:44;;;;;;;12.60;9.20;;;;;;;;;;5127128;27;20015;-53
2021/04/13 06:13:10;;;;;;;13.13;10.03;;;;;;;;;;5130795;27;20019;-49
2021/04/13 06:15:35;;;;;;;11.70;8.77;;;;;;;;;;5120473;27;20016;-49
2021/04/13 06:18:01;;;;;;;9.83;8.07;;;;;;;;;;5131664;27;20015;-50
2021/04/13 06:20:27;;;;;;;13.77;10.57;;;;;;;;;;5123006;27;20151;-50
2021/04/13 06:22:53;;;;;;;11.77;9.63;;;;;;;;;;5108661;27;20023;-47
2021/04/13 06:25:19;;;;;;;12.00;9.30;;;;;;;;;;5119212;27;20350;-52
2021/04/13 06:27:45;;;;;;;11.63;8.50;;;;;;;;;;5123946;27;20348;-47
2021/04/13 06:30:10;;;;;;;10.70;7.87;;;;;;;;;;5132851;27;20076;-50
2021/04/13 06:32:35;;;;;;;9.47;8.13;;;;;;;;;;5125398;27;20023;-48
2021/04/13 06:35:01;;;;;;;10.53;8.60;;;;;;;;;;5114791;27;20032;-47
2021/04/13 06:37:27;;;;;;;10.20;7.90;;;;;;;;;;5126680;27;20026;-49
2021/04/13 06:39:52;;;;;;;11.47;8.87;;;;;;;;;;5133140;27;20371;-50
2021/04/13 06:42:29;;;;;;;14.57;8.97;;;;;;;;;;5125426;27;20493;-54
2021/04/13 06:45:08;;;;;;;12.30;7.83;;;;;;;;;;5131876;27;20052;-46
2021/04/13 06:47:36;;;;;;;10.33;7.40;;;;;;;;;;5133520;27;20493;-49
2021/04/13 06:50:13;;;;;;;12.53;9.47;;;;;;;;;;5119339;27;20015;-46
2021/04/13 06:52:55;;;;;;;9.67;7.37;;;;;;;;;;5125750;27;20043;-46
2021/04/13 06:55:23;;;;;;;9.60;7.67;;;;;;;;;;5128059;27;20030;-51
2021/04/13 06:58:12;;;;;;;9.20;7.27;;;;;;;;;;5126665;27;20378;-50
2021/04/13 07:00:49;;;;;;;8.63;7.17;;;;;;;;;;5047355;28;20136;-50
2021/04/13 07:03:22;;;;;;;9.13;6.80;;;;;;;;;;5042158;28;20036;-47
2021/04/13 07:05:55;;;;;;;9.80;7.37;;;;;;;;;;5043958;28;20025;-51
2021/04/13 07:08:31;;;;;;;9.00;7.53;;;;;;;;;;5046940;28;20029;-49
2021/04/13 07:11:02;;;;;;;8.93;7.20;;;;;;;;;;5036035;28;20445;-52
2021/04/13 07:13:38;;;;;;;8.23;6.80;;;;;;;;;;5036397;28;20108;-50
2021/04/13 07:16:15;;;;;;;8.63;7.37;;;;;;;;;;5034841;28;20028;-54
2021/04/13 07:18:57;;;;;;;8.43;6.70;;;;;;;;;;5044059;28;20035;-51
2021/04/13 07:21:32;;;;;;;6.40;5.67;;;;;;;;;;5034129;28;20056;-51
2021/04/13 07:24:06;;;;;;;8.77;6.47;;;;;;;;;;5049312;28;20056;-54
2021/04/13 07:26:35;;;;;;;5.57;4.55;;;;;;;;;;5049697;28;20025;-50
2021/04/13 07:29:26;;;;;;;5.10;3.37;;;;;;;;;;5049240;28;20089;-49
2021/04/13 07:31:57;;;;;;;4.07;2.83;;;;;;;;;;5026843;28;20071;-51
2021/04/13 07:34:23;;;;;;;8.03;5.90;;;;;;;;;;5042034;28;20512;-51
2021/04/13 07:36:53;;;;;;;5.77;3.77;;;;;;;;;;5058949;28;20088;-51
2021/04/13 07:39:19;;;;;;;6.47;4.80;;;;;;;;;;5124203;28;20019;-48
2021/04/13 07:41:46;;;;;;;6.27;5.10;;;;;;;;;;5108819;28;20100;-49
2021/04/13 07:44:19;;;;;;;4.73;4.03;;;;;;;;;;5129874;28;20020;-52
2021/04/13 07:46:53;;;;;;;7.47;5.43;;;;;;;;;;5132325;27;20076;-49
2021/04/13 07:49:21;;;;;;;6.43;4.13;;;;;;;;;;5132380;28;20015;-48
2021/04/13 07:52:06;;;;;;;11.03;6.80;;;;;;;;;;5128406;27;20088;-50
2021/04/13 07:54:49;;;;;;;6.03;4.90;;;;;;;;;;5124858;27;20043;-48
2021/04/13 07:57:18;;;;;;;4.50;3.23;;;;;;;;;;5131011;28;20012;-47
2021/04/13 07:59:49;;;;;;;6.73;4.90;;;;;;;;;;5119999;28;20019;-49
2021/04/13 08:02:14;;;;;;;7.97;4.20;;;;;;;;;;5116971;27;20386;-48
2021/04/13 08:04:43;;;;;;;3.70;2.43;;;;;;;;;;5114284;28;20072;-50
2021/04/13 08:07:13;;;;;;;8.13;3.83;;;;;;;;;;5114629;28;20031;-54
2021/04/13 08:09:43;;;;;;;6.13;3.80;;;;;;;;;;5131861;27;20019;-48
2021/04/13 08:12:20;;;;;;;6.80;4.53;;;;;;;;;;5118496;27;20023;-49
2021/04/13 08:15:03;;;;;;;8.10;7.30;;;;;;;;;;5132067;27;20385;-48
2021/04/13 08:17:33;;;;;;;5.40;4.80;;;;;;;;;;5131267;27;20019;-49
2021/04/13 08:19:58;;;;;;;9.00;7.60;;;;;;;;;;5119368;27;20016;-52
2021/04/13 08:22:23;;;;;;;7.97;7.07;;;;;;;;;;5128970;27;20023;-49
2021/04/13 08:24:56;;;;;;;7.28;5.63;;;;;;;;;;5124738;27;20026;-52
2021/04/13 08:28:00;;;;;;;3.65;3.30;;;;;;;;;;5128705;27;20356;-52
2021/04/13 08:30:33;;;;;;;7.05;6.32;;;;;;;;;;5032898;28;20025;-47
2021/04/13 08:33:02;;;;;;;8.57;6.70;;;;;;;;;;5037100;28;20032;-51
2021/04/13 08:35:37;;;;;;;7.60;5.50;;;;;;;;;;5037642;28;20508;-52
2021/04/13 08:38:16;;;;;;;5.13;3.90;;;;;;;;;;5049290;28;20041;-53
2021/04/13 08:41:00;;;;;;;5.70;5.07;;;;;;;;;;5042767;28;20025;-53
2021/04/13 08:43:44;;;;;;;12.35;7.22;;;;;;;;;;5034318;28;20018;-49
2021/04/13 08:46:12;;;;;;;9.57;7.50;;;;;;;;;;5046907;28;20499;-51
2021/04/13 08:48:46;;;;;;;8.35;7.50;;;;;;;;;;5033215;28;20036;-50
2021/04/13 08:51:17;;;;;;;6.00;5.45;;;;;;;;;;5047514;28;20432;-48
2021/04/13 08:53:48;;;;;;;8.35;6.50;;;;;;;;;;5034848;28;20136;-48
2021/04/13 08:56:20;;;;;;;7.88;7.10;;;;;;;;;;5035402;28;20159;-48
2021/04/13 08:58:47;;;;;;;7.30;6.50;;;;;;;;;;5040951;28;20081;-48
2021/04/13 09:01:38;;;;;;;6.90;5.85;;;;;;;;;;5080926;27;20082;-50
2021/04/13 09:04:05;;;;;;;5.78;4.60;;;;;;;;;;5123625;27;20042;-48
2021/04/13 09:06:42;;;;;;;5.13;3.50;;;;;;;;;;5135354;27;20030;-50
2021/04/13 09:09:11;;;;;;;7.53;6.38;;;;;;;;;;5129698;27;20028;-47
2021/04/13 09:11:47;;;;;;;9.55;6.30;;;;;;;;;;5132499;27;20048;-52
2021/04/13 09:14:26;;;;;;;10.57;6.10;;;;;;;;;;5129117;27;20072;-53
2021/04/13 09:17:00;;;;;;;5.13;4.47;;;;;;;;;;5132096;27;20068;-50
2021/04/13 09:19:33;;;;;;;4.63;3.73;;;;;;;;;;5135590;27;20047;-51
2021/04/13 09:22:02;;;;;;;4.40;3.97;;;;;;;;;;5127564;27;20099;-50
2021/04/13 09:24:38;;;;;;;1.33;1.23;;;;;;;;;;5115046;27;20429;-51
2021/04/13 09:27:22;;;;;;;3.17;1.77;;;;;;;;;;5129745;27;20660;-47
2021/04/13 09:29:54;;;;;;;4.53;2.42;;;;;;;;;;5131754;27;20026;-50
2021/04/13 09:32:22;;;;;;;5.07;1.95;;;;;;;;;;5125923;27;20020;-51
2021/04/13 09:34:53;;;;;;;3.30;2.78;;;;;;;;;;5114413;27;20047;-47
2021/04/13 09:37:19;;;;;;;5.80;3.72;;;;;;;;;;5119984;27;20023;-49
2021/04/13 09:39:47;;;;;;;6.28;4.10;;;;;;;;;;5117231;27;20097;-53
2021/04/13 09:42:30;;;;;;;4.35;3.95;;;;;;;;;;5126885;27;20015;-51
2021/04/13 09:45:05;;;;;;;4.22;3.53;;;;;;;;;;5119488;27;20027;-48
2021/04/13 09:47:30;;;;;;;4.32;2.92;;;;;;;;;;5126075;27;20506;-49
2021/04/13 09:50:05;;;;;;;4.18;3.10;;;;;;;;;;5127126;27;20133;-51
2021/04/13 09:52:33;;;;;;;5.50;2.72;;;;;;;;;;5131761;27;20039;-52
2021/04/13 09:55:03;;;;;;;4.60;2.38;;;;;;;;;;5133340;27;20019;-50
2021/04/13 09:57:47;;;;;;;3.13;2.20;;;;;;;;;;5131940;27;20076;-51
2021/04/13 10:00:25;;;;;;;3.00;1.17;;;;;;;;;;5113808;27;20379;-51
2021/04/13 10:03:08;;;;;;;1.75;0.68;;;;;;;;;;5119484;27;20370;-53
2021/04/13 10:05:37;;;;;;;4.60;1.80;;;;;;;;;;5121025;27;20028;-51
2021/04/13 10:08:14;;;;;;;4.82;0.85;;;;;;;;;;5131753;27;20489;-53
2021/04/13 10:10:53;;;;;;;2.17;1.50;;;;;;;;;;5114065;27;20030;-51
2021/04/13 10:13:37;;;;;;;3.22;0.77;;;;;;;;;;5116676;27;20367;-50
2021/04/13 10:16:04;;;;;;;3.33;0.68;;;;;;;;;;5125706;27;20023;-48
2021/04/13 10:18:49;;;;;;;3.20;2.00;;;;;;;;;;5122905;27;20101;-50
2021/04/13 10:21:32;;;;;;;1.67;1.38;;;;;;;;;;5121278;27;20314;-52
2021/04/13 10:24:16;;;;;;;2.40;1.00;;;;;;;;;;5133752;27;20031;-49
2021/04/13 10:26:59;;;;;;;2.33;1.23;;;;;;;;;;5128656;27;20030;-50
2021/04/13 10:29:34;;;;;;;3.67;1.20;;;;;;;;;;5120728;27;20027;-50
2021/04/13 10:32:11;;;;;;;3.55;1.40;;;;;;;;;;5124355;27;20051;-47
2021/04/13 10:34:39;;;;;;;1.25;0.98;;;;;;;;;;5114797;27;20019;-54
2021/04/13 10:37:22;;;;;;;2.67;1.73;;;;;;;;;;5132849;27;20054;-51
2021/04/13 10:40:00;;;;;;;3.55;1.13;;;;;;;;;;5125609;27;20023;-52
2021/04/13 10:42:25;;;;;;;2.92;1.35;;;;;;;;;;5123652;27;20057;-52
2021/04/13 10:45:06;;;;;;;4.40;1.75;;;;;;;;;;5128111;27;20030;-48
2021/04/13 10:47:50;;;;;;;2.80;1.15;;;;;;;;;;5124117;27;20114;-52
2021/04/13 10:50:18;;;;;;;4.10;1.35;;;;;;;;;;5113490;27;20459;-50
2021/04/13 10:52:44;;;;;;;2.58;1.20;;;;;;;;;;5113147;27;20799;-50
2021/04/13 10:55:12;;;;;;;1.58;1.48;;;;;;;;;;5129425;27;20080;-53
2021/04/13 10:58:10;;;;;;;2.38;1.60;;;;;;;;;;5120862;27;20424;-52
2021/04/13 11:00:35;;;;;;;1.48;0.77;;;;;;;;;;5072435;28;20032;-48
2021/04/13 11:03:13;;;;;;;2.55;1.30;;;;;;;;;;5125016;27;20031;-50
2021/04/13 11:05:56;;;;;;;1.75;1.00;;;;;;;;;;5129267;27;20367;-48
2021/04/13 11:08:24;;;;;;;2.53;1.35;;;;;;;;;;5127957;27;20015;-47
2021/04/13 11:10:58;;;;;;;2.17;0.82;;;;;;;;;;5130407;27;20458;-50
2021/04/13 11:13:42;;;;;;;0.63;0.63;;;;;;;;;;5123367;27;20026;-52
2021/04/13 11:16:21;;;;;;;1.90;1.00;;;;;;;;;;5127596;27;20434;-46
2021/04/13 11:19:05;;;;;;;1.60;1.15;;;;;;;;;;5132117;27;20023;-52
2021/04/13 11:21:49;;;;;;;1.75;0.60;;;;;;;;;;5120102;27;20023;-48
2021/04/13 11:24:24;;;;;;;1.20;0.57;;;;;;;;;;5124459;27;20038;-50
2021/04/13 11:27:11;;;;;;;1.98;0.80;;;;;;;;;;5128106;27;20028;-51
2021/04/13 11:29:45;;;;;;;1.40;0.65;;;;;;;;;;5122796;27;20116;-48
2021/04/13 11:32:29;;;;;;;1.83;0.90;;;;;;;;;;5123715;27;20020;-52
2021/04/13 11:35:01;;;;;;;4.20;1.02;;;;;;;;;;5131234;27;20121;-48
2021/04/13 11:37:41;;;;;;;2.75;1.10;;;;;;;;;;5121056;27;20023;-49
2021/04/13 11:40:26;;;;;;;1.33;0.90;;;;;;;;;;5131045;27;20011;-52
2021/04/13 11:42:53;;;;;;;1.17;0.57;;;;;;;;;;5122261;28;20015;-49
2021/04/13 11:45:38;;;;;;;1.98;0.73;;;;;;;;;;5130698;27;20023;-52
2021/04/13 11:48:22;;;;;;;2.85;0.95;;;;;;;;;;5126420;27;20067;-49
2021/04/13 11:51:05;;;;;;;2.97;0.90;;;;;;;;;;5116311;28;20027;-51
2021/04/13 11:53:38;;;;;;;2.05;0.60;;;;;;;;;;5129722;28;20015;-49
2021/04/13 11:56:23;;;;;;;0.82;0.50;;;;;;;;;;5135748;27;20023;-53
2021/04/13 11:59:07;;;;;;;0.50;0.40;;;;;;;;;;5115805;27;20109;-52
2021/04/13 12:01:33;;;;;;;1.70;0.70;;;;;;;;;;5125286;27;20046;-48
2021/04/13 12:03:59;;;;;;;2.15;0.80;;;;;;;;;;5116826;27;20051;-54
2021/04/13 12:06:43;;;;;;;1.35;1.00;;;;;;;;;;5120374;27;20047;-53
2021/04/13 12:09:08;;;;;;;1.08;0.40;;;;;;;;;;5125074;27;20068;-52
2021/04/13 12:11:44;;;;;;;1.58;0.82;;;;;;;;;;5120057;27;20027;-49
2021/04/13 12:14:38;;;;;;;1.65;0.50;;;;;;;;;;5132995;27;20093;-51
2021/04/13 12:17:06;;;;;;;3.38;0.50;;;;;;;;;;5120757;27;20041;-53
2021/04/13 12:19:31;;;;;;;2.28;0.43;;;;;;;;;;5120383;27;20016;-50
2021/04/13 12:21:58;;;;;;;4.38;0.45;;;;;;;;;;5114741;27;20382;-50
2021/04/13 12:24:39;;;;;;;2.30;0.60;;;;;;;;;;5134121;27;20028;-52
2021/04/13 12:27:23;;;;;;;2.25;0.80;;;;;;;;;;5131880;27;20102;-48
2021/04/13 12:29:48;;;;;;;1.13;0.30;;;;;;;;;;5128606;27;20038;-48
2021/04/13 12:32:13;;;;;;;1.67;0.40;;;;;;;;;;5113065;28;20471;-49
2021/04/13 12:35:01;;;;;;;1.77;0.50;;;;;;;;;;5119380;27;20366;-51
2021/04/13 12:37:47;;;;;;;2.72;0.60;;;;;;;;;;5121583;27;20038;-50
2021/04/13 12:40:18;;;;;;;1.00;0.30;;;;;;;;;;5125230;27;20045;-52
2021/04/13 12:42:45;;;;;;;1.48;0.40;;;;;;;;;;5132183;27;20134;-51
2021/04/13 12:45:20;;;;;;;2.25;0.55;;;;;;;;;;5134651;27;20023;-51
2021/04/13 12:47:49;;;;;;;0.75;0.30;;;;;;;;;;5133072;27;20098;-49
2021/04/13 12:50:20;;;;;;;0.32;0.20;;;;;;;;;;5120633;27;20038;-48
2021/04/13 12:52:45;;;;;;;1.40;0.40;;;;;;;;;;5127445;27;20494;-47
2021/04/13 12:55:13;;;;;;;2.33;0.30;;;;;;;;;;5134486;27;20026;-51
2021/04/13 12:57:52;;;;;;;1.02;0.32;;;;;;;;;;5129496;27;20030;-49
2021/04/13 13:00:18;;;;;;;2.13;0.30;;;;;;;;;;5130879;27;20583;-51
2021/04/13 13:02:47;;;;;;;0.70;0.20;;;;;;;;;;5131399;27;20015;-52
2021/04/13 13:05:18;;;;;;;0.20;0.10;;;;;;;;;;5130254;27;20026;-48
2021/04/13 13:07:50;;;;;;;2.65;0.25;;;;;;;;;;5133960;27;20026;-48
2021/04/13 13:10:15;;;;;;;1.63;0.30;;;;;;;;;;5122096;27;20297;-51
2021/04/13 13:12:41;;;;;;;2.28;0.30;;;;;;;;;;5112121;27;20545;-53
2021/04/13 13:15:08;;;;;;;1.00;0.30;;;;;;;;;;5133328;27;20022;-52
2021/04/13 13:17:36;;;;;;;1.63;0.22;;;;;;;;;;5129312;27;20034;-48
2021/04/13 13:20:03;;;;;;;1.52;0.38;;;;;;;;;;5123659;27;20060;-52
2021/04/13 13:22:29;;;;;;;1.98;0.30;;;;;;;;;;5123170;27;20065;-51
2021/04/13 13:24:55;;;;;;;2.30;0.38;;;;;;;;;;5121914;27;20030;-50
2021/04/13 13:27:20;;;;;;;1.05;0.35;;;;;;;;;;5125936;27;20023;-47
2021/04/13 13:29:46;;;;;;;0.70;0.30;;;;;;;;;;5125678;27;20053;-51
2021/04/13 13:32:13;;;;;;;1.38;0.30;;;;;;;;;;5117362;27;20053;-53
2021/04/13 13:34:39;;;;;;;1.85;0.55;;;;;;;;;;5134639;27;20012;-50
2021/04/13 13:37:06;;;;;;;1.08;0.30;;;;;;;;;;5132158;27;20373;-51
2021/04/13 13:39:31;;;;;;;3.30;0.70;;;;;;;;;;5129361;27;20546;-49
2021/04/13 13:41:59;;;;;;;1.95;0.57;;;;;;;;;;5119544;27;20094;-53
2021/04/13 13:44:25;;;;;;;1.15;0.40;;;;;;;;;;5126526;27;20486;-51
2021/04/13 13:46:57;;;;;;;1.83;0.50;;;;;;;;;;5124082;27;20042;-53
2021/04/13 13:49:36;;;;;;;4.32;0.88;;;;;;;;;;5130139;27;20012;-51
2021/04/13 13:52:03;;;;;;;3.33;0.68;;;;;;;;;;5128485;27;20050;-52
2021/04/13 13:54:29;;;;;;;1.52;0.50;;;;;;;;;;5126710;27;20019;-50
2021/04/13 13:56:54;;;;;;;0.93;0.50;;;;;;;;;;5125907;27;20033;-51
2021/04/13 13:59:27;;;;;;;1.85;0.73;;;;;;;;;;5133198;27;20019;-54
2021/04/13 14:02:13;;;;;;;2.03;0.60;;;;;;;;;;5127710;27;20058;-49
2021/04/13 14:04:39;;;;;;;1.25;0.50;;;;;;;;;;5118898;27;20406;-48
2021/04/13 14:07:06;;;;;;;1.77;0.73;;;;;;;;;;5126956;27;20027;-53
2021/04/13 14:09:32;;;;;;;0.57;0.20;;;;;;;;;;5121201;27;20047;-53
2021/04/13 14:12:17;;;;;;;2.25;0.52;;;;;;;;;;5116314;27;20379;-47
2021/04/13 14:14:43;;;;;;;0.70;0.40;;;;;;;;;;5132139;27;20011;-50
2021/04/13 14:17:13;;;;;;;1.33;0.65;;;;;;;;;;5123383;27;20235;-47
2021/04/13 14:19:38;;;;;;;1.45;0.40;;;;;;;;;;5126158;27;20110;-50
2021/04/13 14:22:08;;;;;;;0.93;0.75;;;;;;;;;;5125157;27;20030;-52
2021/04/13 14:24:36;;;;;;;1.50;0.55;;;;;;;;;;5125123;27;20052;-50
2021/04/13 14:27:07;;;;;;;2.63;1.30;;;;;;;;;;5121683;27;20039;-52
2021/04/13 14:29:33;;;;;;;2.35;0.80;;;;;;;;;;5117811;27;20019;-51
2021/04/13 14:31:58;;;;;;;1.80;0.90;;;;;;;;;;5115418;27;20020;-48
2021/04/13 14:34:25;;;;;;;2.15;0.85;;;;;;;;;;5121775;27;20023;-48
2021/04/13 14:37:04;;;;;;;2.40;0.65;;;;;;;;;;5121043;27;20059;-51
2021/04/13 14:39:30;;;;;;;2.25;0.90;;;;;;;;;;5120640;27;20081;-49
2021/04/13 14:41:55;;;;;;;1.55;0.90;;;;;;;;;;5115720;27;20439;-47
2021/04/13 14:44:20;;;;;;;1.25;0.80;;;;;;;;;;5124849;27;20420;-51
2021/04/13 14:46:46;;;;;;;3.63;0.57;;;;;;;;;;5131204;27;20110;-51
2021/04/13 14:49:12;;;;;;;1.88;1.20;;;;;;;;;;5123040;27;20028;-51
2021/04/13 14:51:37;;;;;;;2.70;1.20;;;;;;;;;;5126749;27;20486;-50
2021/04/13 14:54:05;;;;;;;2.42;1.35;;;;;;;;;;5121267;27;20041;-48
2021/04/13 14:56:30;;;;;;;4.10;1.13;;;;;;;;;;5126834;27;20436;-48
2021/04/13 14:58:55;;;;;;;2.63;1.30;;;;;;;;;;5126170;27;20027;-52
2021/04/13 15:01:20;;;;;;;5.20;1.30;;;;;;;;;;5111882;27;20019;-51
2021/04/13 15:03:46;;;;;;;5.35;0.95;;;;;;;;;;5120011;27;20096;-47